Time;durP1;ratioP1;P1;durP2;ratioP2;P2;SDS_P1;SDS_P2;PMS_P1;PMS_P2;Temp;Humidity;BMP_temperature;BMP_pressure;BME280_temperature;BME280_humidity;BME280_pressure;Samples;Min_cycle;Max_cycle;Signal;HPM_P1;HPM_P2
2023/11/13 00:00:33;;;;;;;116.80;9.57;;;;;;;;;;5043801;28;20049;-57
2023/11/13 00:02:58;;;;;;;104.97;8.93;;;;;;;;;;5045776;28;20016;-55
2023/11/13 00:05:24;;;;;;;127.75;10.23;;;;;;;;;;5042259;28;20102;-57
2023/11/13 00:07:49;;;;;;;107.63;8.98;;;;;;;;;;5044102;28;20025;-57
2023/11/13 00:10:14;;;;;;;127.97;10.02;;;;;;;;;;5045814;28;20020;-57
2023/11/13 00:12:40;;;;;;;78.78;8.13;;;;;;;;;;5026641;28;20447;-57
2023/11/13 00:15:06;;;;;;;134.82;9.73;;;;;;;;;;5045005;28;20025;-57
2023/11/13 00:17:31;;;;;;;81.68;8.30;;;;;;;;;;5044175;28;20485;-56
2023/11/13 00:19:57;;;;;;;99.10;8.27;;;;;;;;;;5042576;28;20024;-56
2023/11/13 00:22:23;;;;;;;175.75;12.40;;;;;;;;;;5041647;28;20035;-56
2023/11/13 00:24:48;;;;;;;78.53;8.00;;;;;;;;;;5043153;28;20017;-56
2023/11/13 00:27:13;;;;;;;124.28;10.25;;;;;;;;;;5047923;28;20128;-55
2023/11/13 00:29:38;;;;;;;100.65;9.73;;;;;;;;;;5049766;28;20016;-56
2023/11/13 00:32:04;;;;;;;110.40;10.15;;;;;;;;;;5048990;28;20029;-55
2023/11/13 00:34:30;;;;;;;92.20;8.35;;;;;;;;;;5048133;28;20535;-56
2023/11/13 00:36:55;;;;;;;116.80;9.38;;;;;;;;;;5046162;28;20040;-56
2023/11/13 00:39:21;;;;;;;119.03;9.48;;;;;;;;;;5047376;28;20017;-56
2023/11/13 00:41:46;;;;;;;132.23;10.25;;;;;;;;;;5046206;28;20076;-54
2023/11/13 00:44:11;;;;;;;86.15;8.23;;;;;;;;;;5047194;28;20108;-55
2023/11/13 00:46:36;;;;;;;62.60;6.55;;;;;;;;;;5048129;28;20497;-56
2023/11/13 00:49:03;;;;;;;109.28;9.27;;;;;;;;;;5049904;28;20064;-56
2023/11/13 00:51:28;;;;;;;146.68;11.48;;;;;;;;;;5044981;28;20079;-57
2023/11/13 00:53:54;;;;;;;98.03;8.63;;;;;;;;;;5047574;28;20020;-56
2023/11/13 00:56:19;;;;;;;146.70;10.75;;;;;;;;;;5046508;28;20059;-55
2023/11/13 00:58:45;;;;;;;89.25;8.05;;;;;;;;;;5049209;28;20035;-56
2023/11/13 01:01:13;;;;;;;68.45;7.03;;;;;;;;;;5048007;28;20401;-56
2023/11/13 01:03:39;;;;;;;111.13;8.98;;;;;;;;;;5046278;28;20681;-56
2023/11/13 01:06:04;;;;;;;70.22;7.03;;;;;;;;;;5048167;28;20036;-56
2023/11/13 01:08:29;;;;;;;140.77;11.45;;;;;;;;;;5045373;28;20135;-56
2023/11/13 01:10:55;;;;;;;128.02;9.85;;;;;;;;;;5045826;28;20045;-54
2023/11/13 01:13:20;;;;;;;112.90;8.80;;;;;;;;;;5042958;28;20282;-55
2023/11/13 01:15:46;;;;;;;93.15;8.40;;;;;;;;;;5046763;28;20039;-56
2023/11/13 01:18:13;;;;;;;71.78;7.78;;;;;;;;;;5048556;28;20465;-55
2023/11/13 01:20:38;;;;;;;77.05;7.85;;;;;;;;;;5048387;28;20081;-56
2023/11/13 01:23:04;;;;;;;116.80;9.52;;;;;;;;;;5046700;28;20648;-56
2023/11/13 01:25:29;;;;;;;135.82;10.88;;;;;;;;;;5048521;28;20040;-57
2023/11/13 01:27:54;;;;;;;71.05;7.57;;;;;;;;;;5048551;28;20021;-57
2023/11/13 01:30:20;;;;;;;169.05;12.23;;;;;;;;;;5046279;28;20111;-56
2023/11/13 01:32:46;;;;;;;73.45;7.97;;;;;;;;;;5048442;28;20031;-57
2023/11/13 01:35:11;;;;;;;87.50;9.07;;;;;;;;;;5049112;28;20089;-57
2023/11/13 01:37:37;;;;;;;117.30;10.07;;;;;;;;;;5044544;28;20668;-57
2023/11/13 01:40:05;;;;;;;75.53;8.20;;;;;;;;;;5048573;28;20321;-56
2023/11/13 01:42:30;;;;;;;126.03;10.55;;;;;;;;;;5045585;28;20127;-57
2023/11/13 01:44:57;;;;;;;125.35;9.48;;;;;;;;;;5047617;28;20399;-55
2023/11/13 01:47:23;;;;;;;130.73;10.20;;;;;;;;;;5047382;28;20032;-56
2023/11/13 01:49:48;;;;;;;86.60;7.93;;;;;;;;;;5046806;28;20029;-55
2023/11/13 01:52:14;;;;;;;133.55;9.88;;;;;;;;;;5046920;28;20458;-57
2023/11/13 01:54:39;;;;;;;80.90;7.60;;;;;;;;;;5030506;28;20116;-55
2023/11/13 01:57:07;;;;;;;110.72;9.95;;;;;;;;;;5030818;28;20068;-57
2023/11/13 01:59:34;;;;;;;100.40;8.43;;;;;;;;;;5037918;28;20511;-55
2023/11/13 02:02:02;;;;;;;107.70;8.90;;;;;;;;;;5048410;28;20071;-55
2023/11/13 02:04:27;;;;;;;174.40;12.73;;;;;;;;;;5046957;28;20543;-58
2023/11/13 02:06:53;;;;;;;94.32;8.45;;;;;;;;;;5046804;28;20043;-56
2023/11/13 02:09:20;;;;;;;79.13;7.75;;;;;;;;;;5048573;28;20457;-55
2023/11/13 02:11:45;;;;;;;150.27;10.73;;;;;;;;;;5046760;28;20064;-56
2023/11/13 02:14:11;;;;;;;78.70;6.20;;;;;;;;;;5048365;28;20063;-57
2023/11/13 02:16:36;;;;;;;89.40;7.53;;;;;;;;;;5045684;28;20471;-55
2023/11/13 02:19:01;;;;;;;103.35;8.70;;;;;;;;;;5045865;28;20028;-55
2023/11/13 02:21:27;;;;;;;125.25;9.93;;;;;;;;;;5048966;28;20435;-57
2023/11/13 02:23:52;;;;;;;91.75;8.38;;;;;;;;;;5045071;28;20092;-56
2023/11/13 02:26:18;;;;;;;126.40;10.27;;;;;;;;;;5045321;28;20037;-56
2023/11/13 02:28:43;;;;;;;75.10;7.68;;;;;;;;;;5047114;28;20028;-57
2023/11/13 02:31:09;;;;;;;89.03;9.30;;;;;;;;;;5046712;28;20065;-55
2023/11/13 02:33:34;;;;;;;142.88;11.00;;;;;;;;;;5045573;28;20304;-56
2023/11/13 02:35:59;;;;;;;89.85;8.48;;;;;;;;;;5046982;28;20041;-57
2023/11/13 02:38:24;;;;;;;146.77;10.52;;;;;;;;;;5044379;28;20103;-56
2023/11/13 02:40:50;;;;;;;88.43;8.18;;;;;;;;;;5043001;28;20037;-57
2023/11/13 02:43:15;;;;;;;78.43;7.80;;;;;;;;;;5047775;28;20020;-56
2023/11/13 02:45:40;;;;;;;105.03;8.55;;;;;;;;;;5044205;28;20210;-55
2023/11/13 02:48:05;;;;;;;90.85;8.07;;;;;;;;;;5048227;28;20017;-57
2023/11/13 02:50:31;;;;;;;145.85;9.93;;;;;;;;;;5043755;28;20045;-57
2023/11/13 02:52:57;;;;;;;101.32;8.80;;;;;;;;;;5044312;28;20051;-56
2023/11/13 02:55:22;;;;;;;162.52;12.93;;;;;;;;;;5045262;28;21325;-54
2023/11/13 02:57:48;;;;;;;84.22;7.97;;;;;;;;;;5045892;28;20036;-56
2023/11/13 03:00:13;;;;;;;108.38;9.32;;;;;;;;;;5046009;28;20350;-54
2023/11/13 03:02:38;;;;;;;74.43;7.57;;;;;;;;;;5045042;28;20056;-56
2023/11/13 03:05:05;;;;;;;93.47;8.93;;;;;;;;;;5043961;28;20017;-54
2023/11/13 03:07:30;;;;;;;174.20;13.57;;;;;;;;;;5045528;28;20115;-56
2023/11/13 03:09:56;;;;;;;110.53;9.20;;;;;;;;;;5044901;28;20107;-55
2023/11/13 03:12:22;;;;;;;127.57;9.43;;;;;;;;;;5044535;28;20033;-56
2023/11/13 03:14:47;;;;;;;117.57;10.95;;;;;;;;;;5045446;28;20396;-55
2023/11/13 03:17:12;;;;;;;84.15;9.73;;;;;;;;;;5043669;28;20378;-55
2023/11/13 03:19:38;;;;;;;91.78;9.07;;;;;;;;;;5044289;28;20469;-56
2023/11/13 03:22:04;;;;;;;131.38;11.65;;;;;;;;;;5046014;28;20043;-55
2023/11/13 03:24:29;;;;;;;146.43;12.20;;;;;;;;;;5043497;28;20012;-56
2023/11/13 03:26:54;;;;;;;114.50;8.23;;;;;;;;;;5045696;28;20547;-57
2023/11/13 03:29:19;;;;;;;82.82;8.50;;;;;;;;;;5032663;28;20341;-55
2023/11/13 03:31:45;;;;;;;95.32;8.30;;;;;;;;;;5045220;28;20078;-55
2023/11/13 03:34:10;;;;;;;104.97;9.75;;;;;;;;;;5045734;28;20019;-56
2023/11/13 03:36:35;;;;;;;151.63;12.57;;;;;;;;;;5043979;28;20036;-55
2023/11/13 03:39:00;;;;;;;85.88;8.95;;;;;;;;;;5045333;28;20372;-56
2023/11/13 03:41:26;;;;;;;183.38;14.18;;;;;;;;;;5043142;28;20116;-57
2023/11/13 03:43:51;;;;;;;89.88;8.45;;;;;;;;;;5045923;28;20404;-55
2023/11/13 03:46:16;;;;;;;89.15;8.60;;;;;;;;;;5048244;28;20032;-56
2023/11/13 03:48:41;;;;;;;129.27;11.57;;;;;;;;;;5045316;28;20021;-56
2023/11/13 03:51:07;;;;;;;85.78;9.25;;;;;;;;;;5047630;28;20881;-56
2023/11/13 03:53:34;;;;;;;109.07;10.73;;;;;;;;;;5044118;28;20016;-57
2023/11/13 03:56:00;;;;;;;119.47;9.77;;;;;;;;;;5044430;28;20037;-56
2023/11/13 03:58:25;;;;;;;118.88;9.77;;;;;;;;;;5045837;28;20094;-56
2023/11/13 04:00:51;;;;;;;90.50;9.00;;;;;;;;;;5044632;28;20060;-57
2023/11/13 04:03:16;;;;;;;105.15;9.68;;;;;;;;;;5043529;28;20104;-56
2023/11/13 04:05:42;;;;;;;68.15;6.40;;;;;;;;;;5041442;28;20098;-56
2023/11/13 04:08:07;;;;;;;90.95;8.90;;;;;;;;;;5043960;28;20021;-56
2023/11/13 04:10:33;;;;;;;133.32;10.57;;;;;;;;;;5042279;28;20033;-56
2023/11/13 04:12:58;;;;;;;94.00;9.52;;;;;;;;;;5044699;28;20473;-56
2023/11/13 04:15:23;;;;;;;123.95;11.32;;;;;;;;;;5043729;28;20072;-59
2023/11/13 04:17:49;;;;;;;103.30;9.75;;;;;;;;;;5045604;28;20114;-56
2023/11/13 04:20:18;;;;;;;87.97;9.45;;;;;;;;;;5045556;28;20090;-56
2023/11/13 04:22:43;;;;;;;128.02;10.35;;;;;;;;;;5045075;28;20020;-58
2023/11/13 04:25:09;;;;;;;82.35;10.23;;;;;;;;;;5046746;28;20025;-56
2023/11/13 04:27:34;;;;;;;139.20;13.18;;;;;;;;;;5046278;28;20029;-56
2023/11/13 04:30:00;;;;;;;143.15;12.02;;;;;;;;;;5042997;28;20145;-57
2023/11/13 04:32:25;;;;;;;98.53;10.70;;;;;;;;;;5041617;28;20404;-58
2023/11/13 04:34:51;;;;;;;84.13;10.05;;;;;;;;;;5046117;28;20060;-57
2023/11/13 04:37:18;;;;;;;145.98;12.30;;;;;;;;;;5045811;28;20048;-56
2023/11/13 04:39:43;;;;;;;86.15;9.27;;;;;;;;;;5045908;28;21562;-57
2023/11/13 04:42:08;;;;;;;104.47;11.05;;;;;;;;;;5045015;28;20025;-56
2023/11/13 04:44:34;;;;;;;173.32;13.90;;;;;;;;;;5042130;28;20095;-58
2023/11/13 04:46:59;;;;;;;87.07;9.00;;;;;;;;;;5043039;28;20083;-57
2023/11/13 04:49:24;;;;;;;88.68;10.48;;;;;;;;;;5043606;28;20321;-57
2023/11/13 04:51:49;;;;;;;131.25;12.13;;;;;;;;;;5033751;28;20060;-56
2023/11/13 04:54:16;;;;;;;85.80;10.07;;;;;;;;;;5042397;28;20025;-56
2023/11/13 04:56:42;;;;;;;142.48;12.77;;;;;;;;;;5041880;28;20066;-58
2023/11/13 04:59:09;;;;;;;100.45;10.70;;;;;;;;;;5042023;28;20025;-56
2023/11/13 05:01:36;;;;;;;153.07;14.05;;;;;;;;;;5044025;28;20555;-58
2023/11/13 05:04:02;;;;;;;124.97;11.52;;;;;;;;;;5044016;28;20104;-56
2023/11/13 05:06:27;;;;;;;103.43;11.10;;;;;;;;;;5043853;28;20112;-57
2023/11/13 05:08:53;;;;;;;98.22;11.18;;;;;;;;;;5043979;28;20384;-56
2023/11/13 05:11:27;;;;;;;135.57;11.20;;;;;;;;;;5043233;28;20037;-57
2023/11/13 05:13:53;;;;;;;105.38;10.82;;;;;;;;;;5050019;28;20262;-56
2023/11/13 05:16:22;;;;;;;108.50;10.52;;;;;;;;;;5048276;28;20491;-55
2023/11/13 05:18:47;;;;;;;72.90;6.45;;;;;;;;;;5046410;28;20050;-56
2023/11/13 05:21:16;;;;;;;92.07;10.68;;;;;;;;;;5049009;28;20043;-55
2023/11/13 05:23:42;;;;;;;180.27;15.15;;;;;;;;;;5046340;28;20556;-57
2023/11/13 05:26:07;;;;;;;77.80;8.88;;;;;;;;;;5047850;28;20153;-57
2023/11/13 05:28:32;;;;;;;119.45;12.00;;;;;;;;;;5047154;28;20115;-56
2023/11/13 05:30:58;;;;;;;140.02;12.77;;;;;;;;;;5030743;28;20510;-56
2023/11/13 05:33:23;;;;;;;92.20;9.77;;;;;;;;;;5030723;28;20023;-57
2023/11/13 05:35:49;;;;;;;71.07;9.23;;;;;;;;;;5029924;28;20044;-55
2023/11/13 05:38:15;;;;;;;133.30;13.35;;;;;;;;;;5047071;28;20020;-57
2023/11/13 05:40:41;;;;;;;117.20;11.27;;;;;;;;;;5046461;28;20602;-60
2023/11/13 05:43:06;;;;;;;115.95;12.75;;;;;;;;;;5047184;28;20059;-57
2023/11/13 05:45:31;;;;;;;145.60;12.88;;;;;;;;;;5045969;28;20036;-57
2023/11/13 05:47:57;;;;;;;105.60;9.82;;;;;;;;;;5048768;28;20031;-54
2023/11/13 05:50:23;;;;;;;80.43;4.53;;;;;;;;;;5047127;28;20025;-57
2023/11/13 05:52:49;;;;;;;98.80;5.20;;;;;;;;;;5046692;28;20494;-55
2023/11/13 05:55:14;;;;;;;78.00;4.13;;;;;;;;;;5049755;28;20507;-55
2023/11/13 05:57:39;;;;;;;119.80;6.28;;;;;;;;;;5047234;28;20328;-54
2023/11/13 06:00:05;;;;;;;105.82;5.65;;;;;;;;;;5047673;28;20029;-56
2023/11/13 06:02:32;;;;;;;86.57;4.68;;;;;;;;;;5045131;28;20068;-55
2023/11/13 06:04:57;;;;;;;106.57;5.45;;;;;;;;;;5048271;28;20025;-56
2023/11/13 06:07:23;;;;;;;83.80;4.55;;;;;;;;;;5047951;28;20036;-55
2023/11/13 06:09:48;;;;;;;81.15;4.22;;;;;;;;;;5048138;28;20440;-56
2023/11/13 06:12:13;;;;;;;118.47;6.32;;;;;;;;;;5045391;28;20095;-57
2023/11/13 06:14:38;;;;;;;120.87;6.70;;;;;;;;;;5045689;28;20037;-55
2023/11/13 06:17:04;;;;;;;79.43;4.43;;;;;;;;;;5045626;28;20336;-55
2023/11/13 06:19:29;;;;;;;111.57;5.80;;;;;;;;;;5046187;28;20320;-55
2023/11/13 06:21:55;;;;;;;97.13;5.28;;;;;;;;;;5045496;28;20066;-57
2023/11/13 06:24:20;;;;;;;74.05;4.13;;;;;;;;;;5045034;28;20047;-57
2023/11/13 06:26:46;;;;;;;161.50;10.07;;;;;;;;;;5044956;28;20124;-58
2023/11/13 06:29:11;;;;;;;68.15;3.67;;;;;;;;;;5044465;28;20032;-58
2023/11/13 06:31:36;;;;;;;133.73;7.38;;;;;;;;;;5027824;28;20409;-56
2023/11/13 06:34:02;;;;;;;117.20;6.07;;;;;;;;;;5044518;28;20225;-55
2023/11/13 06:36:28;;;;;;;80.75;4.18;;;;;;;;;;5045731;28;20518;-56
2023/11/13 06:38:53;;;;;;;85.45;4.63;;;;;;;;;;5045749;28;20045;-56
2023/11/13 06:41:19;;;;;;;98.55;5.10;;;;;;;;;;5044877;28;20033;-56
2023/11/13 06:43:44;;;;;;;128.30;7.38;;;;;;;;;;5045308;28;20424;-57
2023/11/13 06:46:11;;;;;;;54.17;3.30;;;;;;;;;;5044673;28;20057;-57
2023/11/13 06:48:37;;;;;;;123.18;7.25;;;;;;;;;;5043514;28;20266;-55
2023/11/13 06:51:02;;;;;;;66.07;3.83;;;;;;;;;;5046483;28;20071;-55
2023/11/13 06:53:27;;;;;;;86.40;4.65;;;;;;;;;;5046128;28;20091;-54
2023/11/13 06:55:53;;;;;;;81.30;4.68;;;;;;;;;;5043750;28;20329;-60
2023/11/13 06:58:19;;;;;;;79.10;4.30;;;;;;;;;;5046178;28;20037;-56
2023/11/13 07:00:44;;;;;;;142.23;8.23;;;;;;;;;;5043795;28;20139;-57
2023/11/13 07:03:10;;;;;;;62.58;3.65;;;;;;;;;;5047330;28;20043;-57
2023/11/13 07:05:35;;;;;;;111.03;6.47;;;;;;;;;;5044637;28;20025;-58
2023/11/13 07:08:01;;;;;;;121.95;6.43;;;;;;;;;;5042608;28;20029;-57
2023/11/13 07:10:33;;;;;;;62.70;3.63;;;;;;;;;;5046155;28;20016;-55
2023/11/13 07:12:58;;;;;;;100.50;5.38;;;;;;;;;;5029878;28;20316;-56
2023/11/13 07:15:24;;;;;;;86.50;4.72;;;;;;;;;;5046082;28;20714;-55
2023/11/13 07:17:49;;;;;;;102.60;5.65;;;;;;;;;;5044704;28;20032;-55
2023/11/13 07:20:18;;;;;;;88.70;4.90;;;;;;;;;;5044596;28;20527;-56
2023/11/13 07:22:43;;;;;;;111.85;6.20;;;;;;;;;;5044174;28;20021;-56
2023/11/13 07:25:09;;;;;;;73.63;4.22;;;;;;;;;;5046262;28;20012;-57
2023/11/13 07:27:34;;;;;;;113.88;6.13;;;;;;;;;;5047197;28;20070;-56
2023/11/13 07:29:59;;;;;;;69.53;4.00;;;;;;;;;;5046015;28;20341;-56
2023/11/13 07:32:27;;;;;;;64.20;3.70;;;;;;;;;;5044365;28;20064;-55
2023/11/13 07:34:53;;;;;;;124.50;6.32;;;;;;;;;;5042605;28;20270;-55
2023/11/13 07:37:19;;;;;;;72.05;4.13;;;;;;;;;;5045306;28;20029;-56
2023/11/13 07:39:47;;;;;;;105.93;5.70;;;;;;;;;;5044966;28;20021;-57
2023/11/13 07:42:13;;;;;;;103.63;5.50;;;;;;;;;;5043297;28;20048;-57
2023/11/13 07:44:38;;;;;;;111.40;6.47;;;;;;;;;;5044913;28;20055;-56
2023/11/13 07:47:04;;;;;;;87.75;4.80;;;;;;;;;;5046485;28;20040;-57
2023/11/13 07:49:30;;;;;;;69.68;3.88;;;;;;;;;;5046629;28;20024;-57
2023/11/13 07:51:56;;;;;;;83.80;5.28;;;;;;;;;;5045052;28;20040;-55
2023/11/13 07:54:21;;;;;;;87.75;4.85;;;;;;;;;;5044967;28;20405;-56
2023/11/13 07:56:47;;;;;;;92.57;5.22;;;;;;;;;;5045969;28;20624;-56
2023/11/13 07:59:15;;;;;;;72.55;4.03;;;;;;;;;;5046125;28;20586;-55
2023/11/13 08:01:40;;;;;;;153.95;8.15;;;;;;;;;;5040923;28;20073;-54
2023/11/13 08:04:08;;;;;;;55.80;3.33;;;;;;;;;;5030674;28;20017;-56
2023/11/13 08:06:34;;;;;;;44.78;2.90;;;;;;;;;;5040900;28;20028;-56
2023/11/13 08:08:59;;;;;;;79.68;5.47;;;;;;;;;;5050027;28;20029;-55
2023/11/13 08:11:25;;;;;;;54.42;4.55;;;;;;;;;;5048830;28;20029;-55
2023/11/13 08:13:50;;;;;;;118.03;7.47;;;;;;;;;;5049620;28;20024;-55
2023/11/13 08:16:15;;;;;;;63.30;4.20;;;;;;;;;;5046942;28;20568;-54
2023/11/13 08:18:40;;;;;;;56.70;3.85;;;;;;;;;;5047993;28;20032;-54
2023/11/13 08:21:06;;;;;;;68.05;4.53;;;;;;;;;;5047273;28;20126;-56
2023/11/13 08:23:31;;;;;;;62.58;4.40;;;;;;;;;;5047234;28;20027;-56
2023/11/13 08:25:59;;;;;;;46.88;3.92;;;;;;;;;;5049093;28;20467;-55
2023/11/13 08:28:25;;;;;;;74.47;4.82;;;;;;;;;;5049149;28;20148;-56
2023/11/13 08:30:50;;;;;;;99.60;6.63;;;;;;;;;;5048014;28;20131;-57
2023/11/13 08:33:15;;;;;;;51.50;3.95;;;;;;;;;;5049334;28;20155;-56
2023/11/13 08:35:41;;;;;;;109.70;7.22;;;;;;;;;;5048044;28;20036;-56
2023/11/13 08:38:08;;;;;;;47.72;3.88;;;;;;;;;;5047839;28;20021;-56
2023/11/13 08:40:34;;;;;;;47.17;3.33;;;;;;;;;;5048541;28;20039;-56
2023/11/13 08:43:02;;;;;;;95.22;5.60;;;;;;;;;;5046788;28;20025;-56
2023/11/13 08:45:28;;;;;;;54.13;4.30;;;;;;;;;;5048486;28;20045;-55
2023/11/13 08:47:53;;;;;;;118.05;7.15;;;;;;;;;;5050566;28;20047;-55
2023/11/13 08:50:20;;;;;;;73.28;5.50;;;;;;;;;;5049968;28;20036;-55
2023/11/13 08:52:47;;;;;;;98.43;7.00;;;;;;;;;;5049922;28;20025;-57
2023/11/13 08:55:13;;;;;;;67.05;5.50;;;;;;;;;;5050762;28;20020;-54
2023/11/13 08:57:41;;;;;;;76.43;6.68;;;;;;;;;;5052731;28;20503;-56
2023/11/13 09:00:08;;;;;;;56.03;6.43;;;;;;;;;;5052213;28;20028;-57
2023/11/13 09:02:34;;;;;;;66.57;6.68;;;;;;;;;;5052490;28;20519;-55
2023/11/13 09:05:04;;;;;;;59.97;6.22;;;;;;;;;;5052916;28;20115;-56
2023/11/13 09:07:29;;;;;;;47.08;5.75;;;;;;;;;;5053130;28;20060;-57
2023/11/13 09:09:55;;;;;;;161.13;11.85;;;;;;;;;;5051351;28;20480;-55
2023/11/13 09:12:20;;;;;;;73.15;6.43;;;;;;;;;;5051724;28;20265;-57
2023/11/13 09:14:47;;;;;;;102.65;9.60;;;;;;;;;;5051067;28;20115;-57
2023/11/13 09:17:12;;;;;;;80.78;6.93;;;;;;;;;;5052379;28;20036;-56
2023/11/13 09:19:41;;;;;;;52.55;5.63;;;;;;;;;;5055157;28;20024;-56
2023/11/13 09:22:09;;;;;;;99.57;8.48;;;;;;;;;;5052780;28;20033;-57
2023/11/13 09:24:38;;;;;;;73.75;7.50;;;;;;;;;;5048778;28;20013;-57
2023/11/13 09:27:04;;;;;;;49.33;5.78;;;;;;;;;;5053185;28;20033;-56
2023/11/13 09:29:29;;;;;;;73.07;7.53;;;;;;;;;;5042559;28;20021;-56
2023/11/13 09:31:55;;;;;;;152.97;12.50;;;;;;;;;;5050806;28;20392;-57
2023/11/13 09:34:22;;;;;;;61.17;6.93;;;;;;;;;;5052184;28;20642;-58
2023/11/13 09:36:47;;;;;;;142.98;12.45;;;;;;;;;;5048786;28;20535;-56
2023/11/13 09:39:13;;;;;;;55.45;6.85;;;;;;;;;;5051978;28;20099;-57
2023/11/13 09:41:45;;;;;;;58.33;6.28;;;;;;;;;;5051941;28;20143;-55
2023/11/13 09:44:11;;;;;;;72.00;7.30;;;;;;;;;;5051324;28;20025;-57
2023/11/13 09:46:38;;;;;;;44.65;6.05;;;;;;;;;;5052558;28;20079;-58
2023/11/13 09:49:10;;;;;;;82.78;7.93;;;;;;;;;;5050239;28;20318;-57
2023/11/13 09:51:37;;;;;;;70.65;6.22;;;;;;;;;;5049821;28;20080;-57
2023/11/13 09:54:03;;;;;;;62.53;5.75;;;;;;;;;;5052420;28;20254;-56
2023/11/13 09:56:30;;;;;;;75.78;6.15;;;;;;;;;;5052317;28;20064;-56
2023/11/13 09:58:56;;;;;;;99.95;7.65;;;;;;;;;;5050314;28;20056;-56
2023/11/13 10:01:21;;;;;;;59.75;5.20;;;;;;;;;;5050307;28;20029;-57
2023/11/13 10:03:47;;;;;;;95.77;7.20;;;;;;;;;;5052055;28;20017;-57
2023/11/13 10:06:12;;;;;;;56.60;4.82;;;;;;;;;;5050503;28;20267;-56
2023/11/13 10:08:41;;;;;;;65.75;5.60;;;;;;;;;;5052069;28;20178;-56
2023/11/13 10:11:08;;;;;;;78.82;5.93;;;;;;;;;;5051360;28;20029;-57
2023/11/13 10:13:34;;;;;;;54.55;4.82;;;;;;;;;;5048906;28;20025;-57
2023/11/13 10:16:14;;;;;;;105.82;7.38;;;;;;;;;;5048464;28;20112;-58
2023/11/13 10:18:39;;;;;;;52.22;5.13;;;;;;;;;;5052490;28;20059;-56
2023/11/13 10:21:04;;;;;;;72.13;5.87;;;;;;;;;;5050838;28;20060;-56
2023/11/13 10:23:36;;;;;;;62.97;5.67;;;;;;;;;;5050475;28;20294;-57
2023/11/13 10:26:01;;;;;;;98.22;7.72;;;;;;;;;;5050346;28;20731;-57
2023/11/13 10:28:37;;;;;;;70.38;5.55;;;;;;;;;;5050953;28;20030;-57
2023/11/13 10:31:12;;;;;;;101.47;7.40;;;;;;;;;;5050667;28;20047;-56
2023/11/13 10:33:38;;;;;;;45.30;4.47;;;;;;;;;;5051418;28;20031;-56
2023/11/13 10:36:17;;;;;;;51.30;5.15;;;;;;;;;;5050552;28;20093;-56
2023/11/13 10:38:47;;;;;;;63.75;5.63;;;;;;;;;;5048610;28;20171;-56
2023/11/13 10:41:13;;;;;;;50.45;4.63;;;;;;;;;;5053163;28;20106;-57
2023/11/13 10:43:43;;;;;;;49.08;5.20;;;;;;;;;;5048988;28;20017;-58
2023/11/13 10:46:09;;;;;;;38.95;4.40;;;;;;;;;;5049317;28;20621;-57
2023/11/13 10:48:47;;;;;;;35.03;4.25;;;;;;;;;;5040646;28;20166;-59
2023/11/13 10:51:17;;;;;;;54.35;5.20;;;;;;;;;;5050998;28;20036;-56
2023/11/13 10:53:42;;;;;;;55.75;5.00;;;;;;;;;;5048985;28;20060;-56
2023/11/13 10:56:11;;;;;;;76.75;6.65;;;;;;;;;;5048090;28;20058;-57
2023/11/13 10:58:37;;;;;;;73.78;6.22;;;;;;;;;;5051233;28;20028;-56
2023/11/13 11:01:08;;;;;;;115.97;10.57;;;;;;;;;;5047875;28;20135;-57
2023/11/13 11:03:37;;;;;;;67.03;6.72;;;;;;;;;;5050734;28;20029;-56
2023/11/13 11:06:11;;;;;;;104.80;8.15;;;;;;;;;;5047369;28;20040;-58
2023/11/13 11:08:37;;;;;;;70.30;5.68;;;;;;;;;;5049332;28;20059;-56
2023/11/13 11:11:03;;;;;;;137.90;9.98;;;;;;;;;;5047005;28;20131;-56
2023/11/13 11:13:29;;;;;;;62.33;5.50;;;;;;;;;;5047690;28;20031;-58
2023/11/13 11:16:13;;;;;;;122.50;8.52;;;;;;;;;;5047374;28;20040;-57
2023/11/13 11:18:45;;;;;;;45.10;4.25;;;;;;;;;;5049185;28;20024;-58
2023/11/13 11:21:29;;;;;;;43.05;5.10;;;;;;;;;;5038829;28;20193;-58
2023/11/13 11:24:01;;;;;;;129.18;9.32;;;;;;;;;;5051191;28;20622;-57
2023/11/13 11:26:26;;;;;;;50.77;5.70;;;;;;;;;;5049359;28;20120;-56
2023/11/13 11:28:54;;;;;;;124.65;10.13;;;;;;;;;;5049920;28;20174;-56
2023/11/13 11:31:37;;;;;;;83.28;6.95;;;;;;;;;;5048191;28;20033;-56
2023/11/13 11:34:03;;;;;;;82.22;6.78;;;;;;;;;;5048472;28;20083;-56
2023/11/13 11:36:29;;;;;;;62.75;6.18;;;;;;;;;;5047982;28;20037;-57
2023/11/13 11:39:11;;;;;;;103.15;8.00;;;;;;;;;;5047408;28;20052;-57
2023/11/13 11:41:41;;;;;;;81.43;7.05;;;;;;;;;;5049260;28;20021;-56
2023/11/13 11:44:09;;;;;;;120.32;9.35;;;;;;;;;;5048903;28;20016;-56
2023/11/13 11:46:44;;;;;;;56.28;5.72;;;;;;;;;;5050280;28;20029;-55
2023/11/13 11:49:19;;;;;;;51.67;5.95;;;;;;;;;;5050191;28;20128;-57
2023/11/13 11:51:44;;;;;;;68.22;5.35;;;;;;;;;;5049220;28;20555;-58
2023/11/13 11:54:13;;;;;;;64.32;6.07;;;;;;;;;;5047941;28;20510;-57
2023/11/13 11:56:38;;;;;;;64.07;6.03;;;;;;;;;;5030985;28;20132;-56
2023/11/13 11:59:04;;;;;;;89.75;6.95;;;;;;;;;;5049402;28;20514;-58
2023/11/13 12:01:30;;;;;;;55.60;5.43;;;;;;;;;;5049131;28;20442;-57
2023/11/13 12:03:55;;;;;;;125.45;9.45;;;;;;;;;;5048807;28;20029;-56
2023/11/13 12:06:21;;;;;;;56.20;5.32;;;;;;;;;;5048529;28;20393;-58
2023/11/13 12:08:47;;;;;;;45.28;4.90;;;;;;;;;;5047319;28;20587;-56
2023/11/13 12:11:13;;;;;;;51.25;5.63;;;;;;;;;;5047124;28;20537;-56
2023/11/13 12:13:39;;;;;;;59.15;5.45;;;;;;;;;;5048705;28;20092;-56
2023/11/13 12:16:05;;;;;;;96.63;7.60;;;;;;;;;;5046969;28;20584;-56
2023/11/13 12:18:30;;;;;;;35.03;4.03;;;;;;;;;;5049545;28;20210;-56
2023/11/13 12:20:58;;;;;;;116.53;8.40;;;;;;;;;;5046744;28;20029;-58
2023/11/13 12:23:23;;;;;;;68.95;5.50;;;;;;;;;;5045050;28;20017;-58
2023/11/13 12:25:49;;;;;;;54.47;4.72;;;;;;;;;;5047372;28;20393;-57
2023/11/13 12:28:14;;;;;;;55.38;4.72;;;;;;;;;;5047265;28;20017;-56
2023/11/13 12:30:39;;;;;;;66.15;5.13;;;;;;;;;;5049403;28;20044;-57
2023/11/13 12:33:04;;;;;;;105.83;7.90;;;;;;;;;;5047262;28;20055;-58
2023/11/13 12:35:33;;;;;;;75.50;5.63;;;;;;;;;;5047812;28;20271;-57
2023/11/13 12:37:59;;;;;;;95.32;6.47;;;;;;;;;;5052753;28;20395;-58
2023/11/13 12:40:25;;;;;;;50.78;4.53;;;;;;;;;;5049011;28;20480;-56
2023/11/13 12:42:51;;;;;;;47.60;4.15;;;;;;;;;;5050111;28;20496;-57
2023/11/13 12:45:17;;;;;;;65.00;4.93;;;;;;;;;;5040050;28;20451;-56
2023/11/13 12:47:46;;;;;;;38.75;3.60;;;;;;;;;;5049558;28;20624;-58
2023/11/13 12:50:12;;;;;;;55.03;4.50;;;;;;;;;;5051026;28;20078;-55
2023/11/13 12:52:37;;;;;;;36.08;3.40;;;;;;;;;;5049481;28;20123;-57
2023/11/13 12:55:02;;;;;;;84.88;6.40;;;;;;;;;;5051216;28;20534;-56
2023/11/13 12:57:28;;;;;;;66.95;4.97;;;;;;;;;;5048443;28;20036;-56
2023/11/13 12:59:53;;;;;;;59.90;4.72;;;;;;;;;;5050326;28;20024;-58
2023/11/13 13:02:20;;;;;;;91.97;6.43;;;;;;;;;;5049990;28;20032;-56
2023/11/13 13:04:49;;;;;;;85.40;5.22;;;;;;;;;;5050639;28;20025;-55
2023/11/13 13:07:14;;;;;;;39.60;3.53;;;;;;;;;;5049685;28;20029;-54
2023/11/13 13:09:40;;;;;;;63.95;4.57;;;;;;;;;;5049454;28;20023;-57
2023/11/13 13:12:05;;;;;;;106.03;6.63;;;;;;;;;;5048541;28;20037;-58
2023/11/13 13:14:31;;;;;;;56.83;4.40;;;;;;;;;;5036472;28;20418;-56
2023/11/13 13:16:59;;;;;;;62.13;4.55;;;;;;;;;;5048583;28;20041;-58
2023/11/13 13:19:25;;;;;;;52.97;4.55;;;;;;;;;;5050980;28;20152;-57
2023/11/13 13:21:53;;;;;;;62.78;4.72;;;;;;;;;;5049961;28;20144;-56
2023/11/13 13:24:19;;;;;;;51.13;3.97;;;;;;;;;;5032173;28;20038;-56
2023/11/13 13:26:44;;;;;;;53.20;4.13;;;;;;;;;;5049325;28;20697;-57
2023/11/13 13:29:11;;;;;;;110.07;7.15;;;;;;;;;;5048749;28;20036;-57
2023/11/13 13:31:37;;;;;;;83.40;6.47;;;;;;;;;;5050149;28;20483;-55
2023/11/13 13:34:02;;;;;;;71.18;4.95;;;;;;;;;;5049924;28;20473;-57
2023/11/13 13:36:29;;;;;;;70.13;4.95;;;;;;;;;;5052495;28;20032;-57
2023/11/13 13:38:56;;;;;;;97.25;7.13;;;;;;;;;;5051975;28;20028;-57
2023/11/13 13:41:21;;;;;;;50.97;5.10;;;;;;;;;;5055027;28;20060;-57
2023/11/13 13:43:48;;;;;;;68.75;5.05;;;;;;;;;;5051751;28;20055;-58
2023/11/13 13:46:14;;;;;;;82.75;6.03;;;;;;;;;;5051054;28;20047;-58
2023/11/13 13:48:44;;;;;;;52.97;4.32;;;;;;;;;;5050617;28;20111;-57
2023/11/13 13:51:10;;;;;;;51.28;4.18;;;;;;;;;;5049450;28;20554;-58
2023/11/13 13:53:35;;;;;;;53.92;4.28;;;;;;;;;;5051916;28;20227;-59
2023/11/13 13:56:09;;;;;;;115.85;7.30;;;;;;;;;;5054069;28;20481;-58
2023/11/13 13:58:36;;;;;;;76.03;5.35;;;;;;;;;;5052014;28;20025;-58
2023/11/13 14:01:04;;;;;;;85.68;6.03;;;;;;;;;;5053860;28;20033;-57
2023/11/13 14:03:29;;;;;;;63.28;4.63;;;;;;;;;;5053473;28;20029;-58
2023/11/13 14:05:55;;;;;;;83.45;5.22;;;;;;;;;;5052836;28;20062;-57
2023/11/13 14:08:21;;;;;;;50.13;4.60;;;;;;;;;;5053973;28;20358;-57
2023/11/13 14:10:48;;;;;;;45.15;4.13;;;;;;;;;;5052160;28;20082;-58
2023/11/13 14:13:14;;;;;;;38.78;4.20;;;;;;;;;;5054865;28;20015;-56
2023/11/13 14:15:41;;;;;;;71.07;7.07;;;;;;;;;;5052820;28;20045;-58
2023/11/13 14:18:11;;;;;;;78.15;5.88;;;;;;;;;;5052725;28;20040;-57